This site, now in its 15th season, is a labour of love and fun from one of Ottawa's most avid time trialists and number crunchers. It adheres to and is permitted by the laws of Canada, promotes the objectives of every bicycle club whose results are shown, and is donated free of charge by myself for your enjoyment and usage. If you would like results from series you ride in to be shown here, give me (celia@drmath.ca) a shout!


Index Page
ATT OTT WTT AATT CFCTT VVVTT
Help resultformat:
Case-sensitive

OBC Open TT Series - 2018-Aug-16 - 15km (Rockliffe Pkwy)

Ottawa Weather (18:00): Mainly Clear. Temp.erature: 24.2C, Wind: NE 5km/h, Humidex: 28, Relative humidity: 57%, Dew point: 15C, Pressure: 101.7kPa, Visibility: 24km.
Ottawa Weather (19:00): Mainly Clear. Temp.erature: 20.5C, Wind: E 11km/h, Humidex: 25, Relative humidity: 76%, Dew point: 16C, Pressure: 101.7kPa, Visibility: 224m.
Ottawa Weather (20:00): Mainly Clear. Temp.erature: 19.4C, Wind: E 10km/h, Humidex: *, Relative humidity: 79%, Dew point: 16C, Pressure: 101.7kPa, Visibility: 24km.

Send photos with description (when/where/what) of yourself on or off of bike to celia@drmath.ca

 
 

BESTS?
 
1 Toppings, Connor TLD 18:44 48.043 1/67 SEM 1/8 1.1106
2 Rubarth, Max IND 19:01 47.327 2/67 SEM 2/8 1.0921
3 Miles, Carson OBC 19:11 46.916 3/67 JUM 1/3 0.9691
4 Purificati, Justin RWR 19:30 46.154 4/67 SEM 3/8 0.8914
5 Boileau, Greg NTF 19:53 45.264 5/67 VAM 1/7 1.0177
6 Rendall, Glen  RWR 19:54 45.226 6/67 VBM 1/10 0.9385
7 Monnink, Jordan IND 19:57 45.113 7/67 SEM 4/8 0.9727
8 Diaz, Rodrigo  OBC/EUR 20:05 44.813 8/67 VBM 2/10 0.9130
9 Boers, Daniel OBC 20:30 43.902 9/67 SEM 5/8 1.0420
10 Lafleur, Guillaume OBC 20:43 43.443 10/67 VAM 2/7 1.0268
Schuck, Peter  OBC/RWR 20:43 43.443 10/67 VDM 1/8 1.0441
12 Burge, Craig  CYC 20:55 43.028 12/67 VCM 1/9 0.9929
13 Ross, Ron CLG 21:12 42.453 13/67 VCM 2/9 0.9883
14 Girard, Nicolas OBC 21:35 41.699 14/67 CAM 1/1 0.9977
Mullington, Chris WQW 21:35 41.699 14/67 VDM 2/8 0.9037
16 Page, Graham OBC/NTF 21:42 41.475 16/67 VAM 3/7 0.9413
17 Martins, Alex OBC 21:44 41.411 17/67 VBM 3/10 0.8682
18 Lacroix, Jacob OBC 22:01 40.878 18/67 JUM 2/3 0.9334
Y 19 Flynn, Emily  CYC 22:09 40.632 19/67 SEF 1/3 1.1318
20 Burge, Larry  OBC 22:13 40.510 20/67 VCM 3/9 0.9799
21 Budgell, Glen  OBC 22:15 40.449 21/67 VDM 3/8 0.9688
22 Till, Michael WQW 22:20 40.299 22/67 VCM 4/9 0.9734
23 Czaban, Stefan  WQW 22:35 39.852 23/67 VBM 4/10 0.9758
24 Redshaw, Russ  OBC 22:37 39.794 24/67 VDM 4/8 0.9803
25 Thompson, William OBC 22:42 39.648 25/67 VCM 5/9 0.9523
26 Deschamps, Martin WQW 22:44 39.589 26/67 VBM 5/10 0.9825
Posthuma, Hans  OBC 22:44 39.589 26/67 VDM 5/8 1.0266
28 Benavente-Babace, Ainara OBC 22:50 39.416 28/67 VAF 1/1 0.9825
29 Corpuz, John OBC 22:53 39.330 29/67 VAM 4/7 0.9317
Larocque, Mathyeu OBC 22:53 39.330 29/67 SEM 6/8 1.0132
31 Lavergne, Jazmine OBC 23:13 38.765 31/67 CAF 1/5 1.0864
32 Messier, Jill WQW 23:17 38.654 32/67 SEF 2/3 0.9744
Momtahan, Parham  OBC 23:17 38.654 32/67 VDM 6/8 0.9639
34 Morvan, Jacques  OBC 23:18 38.627 34/67 VEM 1/5 0.9577
35 Lawrence, Will OBC 23:21 38.544 35/67 SEM 7/8 0.8947
36 Grace, Darrin  EUR 23:27 38.380 36/67 VCM 6/9 1.3087
37 Gustyn, Andrew EUR 23:34 38.190 37/67 VCM 7/9 0.9895
38 Pey Perez, Jon OBC 23:39 38.055 38/67 VAM 5/7 0.9562
39 Deavy, Carol  OBC 23:50 37.762 39/67 VCF 1/1 0.9729
40 Milette, Laury OBC 23:51 37.736 40/67 CAF 2/5 0.9668
Omura, Tommy OBC 23:51 37.736 40/67 JUM 3/3 0.9709
42 Véronneau, Marc OBC 23:52 37.709 42/67 VCM 8/9 1.0533
43 Moerman, Bram  OBC 23:53 37.683 43/67 VEM 2/5 0.9751
44 Déry, Nicolas  OBC 23:54 37.657 44/67 VBM 6/10 1.0685
Smithson, Scott OBC 23:54 37.657 44/67 VCM 9/9  
46 Tkalec, Heather  EUR 23:59 37.526 46/67 VBF 1/1 0.9731
Y 47 Martins, Henrique CDO 24:10 37.241 47/67 MIM 1/1 1.0166
48 Boulanger, Gaetan  IND 24:20 36.986 48/67 VEM 3/5 0.9898
49 Williams, Mallory OBC 24:22 36.936 49/67 CAF 3/5 1.0291
50 Arsenault, Ariane CDO 24:30 36.735 50/67 CAF 4/5 1.0351
51 Veilleux, François OBC 24:33 36.660 51/67 VBM 7/10 1.0455
52 Markel, Dan OBC 24:42 36.437 52/67 VBM 8/10 0.9899
A 53 Duarte, Filipe CDO 25:00 36.000 53/67 PWM 1/1 1.1379
Imbrogno, Giorgio  OBC 25:00 36.000 53/67 VDM 7/8 0.9801
55 Burdett, Avery  OBC 25:01 35.976 55/67 VEM 4/5 0.9901
56 Jolly, Mangesh EUR 25:34 35.202 56/67 VAM 6/7 1.1561
57 Gervais, Dominique OBC 25:45 34.951 57/67 JUF 1/1 0.9005
58 Laberge, Marc OBC 26:03 34.549 58/67 VAM 7/7  
59 Dore, Morley OBC 26:07 34.461 59/67 VEM 5/5 1.0886
60 Lavergne, Jayde OBC 26:19 34.199 60/67 MIF 1/1 0.9459
61 McInnis, Celia  OBC 26:46 33.624 61/67 VDF 1/1 1.0169
62 Fortier, Frederic OBC 26:53 33.478 62/67 VBM 9/10 0.9470
63 Weir Weiss, Mary-Jo OBC 26:59 33.354 63/67 SEF 3/3 0.9944
64 Patterson, Craig OBC 27:06 33.210 64/67 SEM 8/8 1.0737
65 Monette, Gary WQW 27:13 33.068 65/67 VDM 8/8 0.9872
66 Au, Steve IND 29:09 30.875 66/67 VBM 10/10 1.1065
67 Martins, Amanda OBC 34:38 25.987 67/67 CAF 5/5 0.9118
 
Average Speed of all of the above 67 finishes (1005km in 26:08:10):38.453
>>>Average of the Average Speeds for these 67 finishes38.895<<<
 

The number of data records shown above is 67
The server processing of your query took: 0 wallclock secs ( 0.09 usr + 0.00 sys = 0.09 CPU)

Thanks to our Helpers: Mark Manners, Alex McKnight, Jess Raymond, Peter Tregunno

     


Mar 30 (Good Friday)
May 1 (10km) May 3 May 8 (10km) May 10 May 15 (10km) May 17 May 22 (10km) May 24 May 29 (10km) May 31
Jun 5 Jun 5 Jun 7 Jun 12 Jun 12 Jun 14 Jun 17 (40km) Jun 19 Jun 19 Jun 21 Jun 26 Jun 26 Jun 28
Jul 3 Jul 3 Jul 5 Jul 8 (40km) Jul 10 Jul 10 Jul 12 Jul 17 Jul 17 Jul 19 Jul 24 Jul 24 Jul 26 Jul 31 Jul 31
Aug 2 Aug 5 (40km) Aug 7 Aug 7 Aug 9 Aug 14 Aug 14
  Aug 16  
Aug 21 Aug 21 Aug 23 Aug 28 Aug 28 (Invitational) Aug 30#1 (Eddie Merckx) Aug 30#2 (With Aero)
Sep 2 (40km) Sep 4 Sep 6 Sep 11 Sep 13 Sep 18

OTT Rankings
Best       Best by category
WTT Rankings for All Participants
5 Best Speeds (≥3 15km, ≤1 10km)     5 Best Speeds (≥3 15km, ≤1 10km) by category
OTT Best Three 15km Rankings
Overall     by category     age-Hcap Female   age-Hcap Male
Other years
TT Calculator All TT People All TT events
ABC Home VVV Home
CKAP GOLD MEDAL
Other Links

Note: OTT data from 2003 through 2006-Apr-14 and 2007-Apr-06-? and WTT from 2008-? is taken from the official OBC site.

Please send your comments and suggestions to: Celia McInnis
Copyright © 1998-2011 Celia McInnis. All rights reserved. Links are welcomed.